Time;durP1;ratioP1;P1;durP2;ratioP2;P2;SDS_P1;SDS_P2;PMS_P1;PMS_P2;Temp;Humidity;BMP_temperature;BMP_pressure;BME280_temperature;BME280_humidity;BME280_pressure;Samples;Min_cycle;Max_cycle;Signal;HPM_P1;HPM_P2
2022/03/15 00:01:23;;;;;;;25.95;10.45;;;;;;;;;;5092625;28;20035;-42
2022/03/15 00:03:49;;;;;;;24.27;11.05;;;;;;;;;;5092411;28;20024;-42
2022/03/15 00:06:15;;;;;;;24.55;10.75;;;;;;;;;;5092273;28;20420;-43
2022/03/15 00:08:41;;;;;;;30.42;10.63;;;;;;;;;;5095698;28;20055;-43
2022/03/15 00:11:07;;;;;;;25.05;10.40;;;;;;;;;;5096483;28;20024;-44
2022/03/15 00:13:37;;;;;;;19.67;10.43;;;;;;;;;;5096275;28;20116;-42
2022/03/15 00:16:04;;;;;;;21.38;9.43;;;;;;;;;;5096050;28;20062;-46
2022/03/15 00:18:31;;;;;;;20.30;9.88;;;;;;;;;;5095411;28;20039;-43
2022/03/15 00:20:57;;;;;;;18.90;10.07;;;;;;;;;;5094702;28;20051;-43
2022/03/15 00:23:23;;;;;;;20.45;10.13;;;;;;;;;;5094992;28;20107;-42
2022/03/15 00:25:49;;;;;;;25.15;10.65;;;;;;;;;;5095666;28;20024;-43
2022/03/15 00:28:16;;;;;;;27.63;9.95;;;;;;;;;;5096303;28;20111;-43
2022/03/15 00:30:41;;;;;;;25.00;10.50;;;;;;;;;;5096309;28;20376;-43
2022/03/15 00:33:08;;;;;;;26.65;11.50;;;;;;;;;;5094869;28;20028;-42
2022/03/15 00:35:35;;;;;;;23.08;11.10;;;;;;;;;;5095923;28;20141;-42
2022/03/15 00:38:01;;;;;;;20.95;10.48;;;;;;;;;;5096206;28;20027;-42
2022/03/15 00:40:26;;;;;;;21.48;10.48;;;;;;;;;;5095803;28;20032;-42
2022/03/15 00:42:53;;;;;;;21.35;10.13;;;;;;;;;;5096067;28;20028;-42
2022/03/15 00:45:23;;;;;;;31.60;11.18;;;;;;;;;;5096028;28;20111;-42
2022/03/15 00:47:50;;;;;;;19.30;10.07;;;;;;;;;;5096132;28;20031;-43
2022/03/15 00:50:16;;;;;;;23.00;11.05;;;;;;;;;;5095607;28;20483;-43
2022/03/15 00:52:41;;;;;;;19.92;10.35;;;;;;;;;;5095683;28;20031;-42
2022/03/15 00:55:08;;;;;;;22.33;10.77;;;;;;;;;;5095553;28;20031;-44
2022/03/15 00:57:33;;;;;;;26.85;10.60;;;;;;;;;;5095633;28;20184;-41
2022/03/15 00:59:59;;;;;;;20.15;11.07;;;;;;;;;;5095877;28;20060;-42
2022/03/15 01:02:24;;;;;;;24.15;11.43;;;;;;;;;;5095531;28;20504;-42
2022/03/15 01:04:50;;;;;;;31.88;10.88;;;;;;;;;;5095650;28;20020;-42
2022/03/15 01:07:16;;;;;;;28.77;10.80;;;;;;;;;;5095729;28;20412;-42
2022/03/15 01:09:42;;;;;;;23.42;11.38;;;;;;;;;;5095246;28;20471;-42
2022/03/15 01:12:09;;;;;;;23.13;11.27;;;;;;;;;;5095247;28;20031;-42
2022/03/15 01:14:35;;;;;;;25.83;12.32;;;;;;;;;;5095479;28;20081;-41
2022/03/15 01:17:02;;;;;;;27.83;10.73;;;;;;;;;;5095498;28;20181;-42
2022/03/15 01:19:28;;;;;;;23.83;11.60;;;;;;;;;;5095116;28;20055;-41
2022/03/15 01:21:53;;;;;;;21.88;10.77;;;;;;;;;;5095334;28;20024;-41
2022/03/15 01:24:19;;;;;;;24.35;10.90;;;;;;;;;;5095248;28;20395;-43
2022/03/15 01:26:46;;;;;;;21.95;11.48;;;;;;;;;;5094714;28;20123;-42
2022/03/15 01:29:11;;;;;;;23.77;11.70;;;;;;;;;;5094913;28;20509;-42
2022/03/15 01:31:37;;;;;;;25.77;11.40;;;;;;;;;;5094865;28;20107;-41
2022/03/15 01:34:03;;;;;;;24.33;11.07;;;;;;;;;;5094744;28;20032;-42
2022/03/15 01:36:30;;;;;;;23.73;11.20;;;;;;;;;;5095083;28;20035;-43
2022/03/15 01:38:57;;;;;;;19.08;9.68;;;;;;;;;;5094746;28;20028;-41
2022/03/15 01:41:23;;;;;;;20.67;10.15;;;;;;;;;;5094975;28;20097;-42
2022/03/15 01:43:49;;;;;;;24.77;11.77;;;;;;;;;;5094959;28;20028;-42
2022/03/15 01:46:15;;;;;;;23.23;11.00;;;;;;;;;;5094525;28;20522;-42
2022/03/15 01:48:40;;;;;;;20.42;10.52;;;;;;;;;;5094549;28;20387;-43
2022/03/15 01:51:07;;;;;;;24.33;11.18;;;;;;;;;;5094494;28;20020;-41
2022/03/15 01:53:33;;;;;;;22.45;11.60;;;;;;;;;;5076377;28;20020;-41
2022/03/15 01:56:02;;;;;;;28.27;11.45;;;;;;;;;;5094403;28;20099;-42
2022/03/15 01:58:28;;;;;;;23.55;11.30;;;;;;;;;;5094360;28;20107;-42
2022/03/15 02:00:53;;;;;;;23.17;11.10;;;;;;;;;;5094326;28;20107;-43
2022/03/15 02:03:19;;;;;;;27.17;11.75;;;;;;;;;;5094520;28;20361;-44
2022/03/15 02:05:45;;;;;;;20.90;10.48;;;;;;;;;;5092914;28;20543;-42
2022/03/15 02:08:13;;;;;;;31.60;12.02;;;;;;;;;;5094136;28;20024;-42
2022/03/15 02:10:38;;;;;;;30.50;11.15;;;;;;;;;;5094454;28;20020;-42
2022/03/15 02:13:04;;;;;;;24.25;11.65;;;;;;;;;;5094075;28;20039;-41
2022/03/15 02:15:30;;;;;;;22.98;10.95;;;;;;;;;;5094028;28;20064;-44
2022/03/15 02:17:56;;;;;;;24.80;10.30;;;;;;;;;;5094029;28;20028;-43
2022/03/15 02:20:22;;;;;;;24.40;11.38;;;;;;;;;;5094154;28;20036;-45
2022/03/15 02:22:47;;;;;;;23.77;11.30;;;;;;;;;;5093945;28;20031;-44
2022/03/15 02:25:13;;;;;;;20.90;9.82;;;;;;;;;;5093913;28;20028;-42
2022/03/15 02:27:39;;;;;;;20.80;10.38;;;;;;;;;;5093577;28;20132;-42
2022/03/15 02:30:06;;;;;;;23.02;11.55;;;;;;;;;;5093358;28;20043;-43
2022/03/15 02:32:33;;;;;;;22.95;9.95;;;;;;;;;;5093949;28;20361;-44
2022/03/15 02:34:58;;;;;;;21.50;10.88;;;;;;;;;;5093957;28;20103;-42
2022/03/15 02:37:24;;;;;;;20.20;10.02;;;;;;;;;;5093878;28;20416;-42
2022/03/15 02:39:50;;;;;;;20.73;10.85;;;;;;;;;;5093553;28;20107;-42
2022/03/15 02:42:16;;;;;;;20.40;10.23;;;;;;;;;;5093413;28;20063;-44
2022/03/15 02:44:42;;;;;;;20.65;10.05;;;;;;;;;;5093739;28;20101;-43
2022/03/15 02:47:07;;;;;;;21.13;10.75;;;;;;;;;;5093401;28;20034;-41
2022/03/15 02:49:33;;;;;;;21.65;10.02;;;;;;;;;;5093573;28;20140;-42
2022/03/15 02:51:58;;;;;;;24.15;10.43;;;;;;;;;;5093557;28;20093;-43
2022/03/15 02:54:24;;;;;;;20.92;10.55;;;;;;;;;;5093318;28;20035;-44
2022/03/15 02:56:50;;;;;;;21.27;10.55;;;;;;;;;;5093514;28;20107;-42
2022/03/15 02:59:16;;;;;;;28.17;10.90;;;;;;;;;;5093210;28;20032;-42
2022/03/15 03:01:46;;;;;;;24.33;10.55;;;;;;;;;;5093179;28;20034;-43
2022/03/15 03:04:12;;;;;;;23.20;11.18;;;;;;;;;;5093066;28;20104;-42
2022/03/15 03:06:42;;;;;;;21.58;10.23;;;;;;;;;;5093055;28;20110;-41
2022/03/15 03:09:09;;;;;;;29.52;10.48;;;;;;;;;;5093184;28;20064;-42
2022/03/15 03:11:35;;;;;;;27.17;10.18;;;;;;;;;;5092951;28;20636;-43
2022/03/15 03:14:01;;;;;;;22.85;10.65;;;;;;;;;;5092941;28;20282;-44
2022/03/15 03:16:29;;;;;;;19.92;9.85;;;;;;;;;;5092905;28;20028;-41
2022/03/15 03:18:57;;;;;;;21.45;10.48;;;;;;;;;;5092923;28;20103;-42
2022/03/15 03:21:27;;;;;;;18.35;9.82;;;;;;;;;;5091555;28;20024;-41
2022/03/15 03:23:54;;;;;;;18.42;9.25;;;;;;;;;;5093099;28;20028;-42
2022/03/15 03:26:21;;;;;;;21.20;8.80;;;;;;;;;;5092719;28;20024;-44
2022/03/15 03:28:47;;;;;;;19.45;9.55;;;;;;;;;;5092579;28;20032;-44
2022/03/15 03:31:13;;;;;;;24.33;9.02;;;;;;;;;;5092994;28;20035;-41
2022/03/15 03:33:39;;;;;;;23.90;11.40;;;;;;;;;;5092664;28;20029;-42
2022/03/15 03:36:05;;;;;;;19.20;10.07;;;;;;;;;;5092625;28;20028;-44
2022/03/15 03:38:31;;;;;;;23.65;10.48;;;;;;;;;;5092531;28;20381;-42
2022/03/15 03:40:57;;;;;;;21.80;10.65;;;;;;;;;;5092323;28;20047;-43
2022/03/15 03:43:23;;;;;;;24.00;9.88;;;;;;;;;;5091977;28;20428;-42
2022/03/15 03:45:49;;;;;;;19.70;9.60;;;;;;;;;;5092629;28;20020;-43
2022/03/15 03:48:15;;;;;;;22.83;10.65;;;;;;;;;;5092465;28;20089;-42
2022/03/15 03:50:43;;;;;;;24.42;10.80;;;;;;;;;;5092436;28;20028;-42
2022/03/15 03:53:08;;;;;;;20.77;10.40;;;;;;;;;;5092476;28;20059;-44
2022/03/15 03:55:34;;;;;;;21.40;10.35;;;;;;;;;;5092767;28;20028;-42
2022/03/15 03:58:00;;;;;;;27.05;10.27;;;;;;;;;;5092438;28;20028;-42
2022/03/15 04:00:26;;;;;;;23.05;10.80;;;;;;;;;;5092661;28;20386;-43
2022/03/15 04:02:54;;;;;;;24.42;10.30;;;;;;;;;;5092659;28;20027;-41
2022/03/15 04:05:20;;;;;;;16.85;9.73;;;;;;;;;;5092653;28;20069;-42
2022/03/15 04:07:46;;;;;;;19.58;10.13;;;;;;;;;;5092301;28;20028;-42
2022/03/15 04:10:12;;;;;;;19.05;9.68;;;;;;;;;;5092524;28;20036;-42
2022/03/15 04:12:38;;;;;;;23.00;10.20;;;;;;;;;;5092230;28;20066;-42
2022/03/15 04:15:04;;;;;;;20.83;8.95;;;;;;;;;;5092565;28;20117;-42
2022/03/15 04:17:30;;;;;;;27.08;10.32;;;;;;;;;;5092491;28;20031;-43
2022/03/15 04:19:55;;;;;;;18.65;9.23;;;;;;;;;;5092480;28;20376;-44
2022/03/15 04:22:21;;;;;;;22.85;10.30;;;;;;;;;;5092132;28;20497;-43
2022/03/15 04:24:47;;;;;;;24.27;10.02;;;;;;;;;;5092124;28;20032;-42
2022/03/15 04:27:12;;;;;;;20.60;9.75;;;;;;;;;;5092025;28;20049;-42
2022/03/15 04:29:38;;;;;;;20.02;10.20;;;;;;;;;;5091939;28;20036;-42
2022/03/15 04:32:04;;;;;;;22.27;10.27;;;;;;;;;;5092147;28;20024;-45
2022/03/15 04:34:30;;;;;;;19.10;9.68;;;;;;;;;;5092318;28;20115;-42
2022/03/15 04:36:57;;;;;;;22.50;10.15;;;;;;;;;;5092325;28;20024;-42
2022/03/15 04:39:23;;;;;;;24.20;10.57;;;;;;;;;;5092318;28;20034;-42
2022/03/15 04:41:49;;;;;;;19.70;10.23;;;;;;;;;;5092009;28;20102;-43
2022/03/15 04:44:14;;;;;;;18.42;9.57;;;;;;;;;;5091927;28;20432;-42
2022/03/15 04:46:40;;;;;;;18.17;9.98;;;;;;;;;;5091970;28;20103;-41
2022/03/15 04:49:06;;;;;;;23.02;10.55;;;;;;;;;;5091863;28;20063;-42
2022/03/15 04:51:32;;;;;;;21.42;10.40;;;;;;;;;;5092149;28;20099;-42
2022/03/15 04:53:57;;;;;;;21.77;10.70;;;;;;;;;;5093910;28;20459;-43
2022/03/15 04:56:23;;;;;;;29.00;10.95;;;;;;;;;;5095536;28;20024;-42
2022/03/15 04:58:49;;;;;;;23.95;11.48;;;;;;;;;;5095814;28;20024;-43
2022/03/15 05:01:15;;;;;;;20.63;10.43;;;;;;;;;;5095559;28;20055;-44
2022/03/15 05:03:41;;;;;;;20.75;10.52;;;;;;;;;;5095476;28;20476;-43
2022/03/15 05:06:06;;;;;;;24.75;10.57;;;;;;;;;;5095331;28;20028;-43
2022/03/15 05:08:32;;;;;;;21.98;10.35;;;;;;;;;;5095250;28;20036;-42
2022/03/15 05:11:06;;;;;;;21.00;10.80;;;;;;;;;;5095313;28;20016;-42
2022/03/15 05:13:40;;;;;;;25.17;10.90;;;;;;;;;;5095610;28;20380;-42
2022/03/15 05:16:10;;;;;;;28.10;10.85;;;;;;;;;;5095299;28;20107;-42
2022/03/15 05:18:35;;;;;;;19.73;10.85;;;;;;;;;;5095042;28;20027;-41
2022/03/15 05:21:03;;;;;;;24.83;10.73;;;;;;;;;;5095133;28;20032;-42
2022/03/15 05:23:28;;;;;;;24.60;11.38;;;;;;;;;;5095045;28;20539;-43
2022/03/15 05:25:54;;;;;;;28.50;11.23;;;;;;;;;;5095083;28;20024;-44
2022/03/15 05:28:19;;;;;;;24.98;11.90;;;;;;;;;;5094730;28;20085;-43
2022/03/15 05:30:45;;;;;;;26.23;12.25;;;;;;;;;;5095161;28;20487;-42
2022/03/15 05:33:10;;;;;;;29.38;12.20;;;;;;;;;;5094844;28;20068;-42
2022/03/15 05:35:36;;;;;;;25.50;11.18;;;;;;;;;;5095145;28;20035;-42
2022/03/15 05:38:02;;;;;;;24.67;11.10;;;;;;;;;;5094742;28;20429;-42
2022/03/15 05:40:27;;;;;;;25.65;9.35;;;;;;;;;;5094964;28;20031;-43
2022/03/15 05:42:53;;;;;;;36.78;11.77;;;;;;;;;;5094935;28;20024;-43
2022/03/15 05:45:18;;;;;;;28.75;12.30;;;;;;;;;;5094641;28;20032;-43
2022/03/15 05:47:44;;;;;;;40.83;15.30;;;;;;;;;;5094871;28;20032;-43
2022/03/15 05:50:10;;;;;;;32.22;14.70;;;;;;;;;;5094482;28;20475;-42
2022/03/15 05:52:35;;;;;;;37.80;14.25;;;;;;;;;;5094521;28;20483;-42
2022/03/15 05:55:01;;;;;;;37.00;14.13;;;;;;;;;;5094736;28;20111;-42
2022/03/15 05:57:27;;;;;;;35.53;14.57;;;;;;;;;;5094709;28;20032;-43
2022/03/15 05:59:52;;;;;;;36.00;14.02;;;;;;;;;;5094394;28;20020;-42
2022/03/15 06:02:18;;;;;;;24.25;12.05;;;;;;;;;;5094333;28;20024;-42
2022/03/15 06:04:43;;;;;;;21.90;12.27;;;;;;;;;;5093659;28;20020;-43
2022/03/15 06:07:09;;;;;;;24.75;12.20;;;;;;;;;;5094329;28;20024;-42
2022/03/15 06:09:34;;;;;;;29.02;13.43;;;;;;;;;;5094441;28;20495;-43
2022/03/15 06:12:02;;;;;;;23.30;12.80;;;;;;;;;;5094147;28;20024;-43
2022/03/15 06:14:27;;;;;;;22.30;12.40;;;;;;;;;;5094301;28;20031;-42
2022/03/15 06:16:53;;;;;;;20.60;12.40;;;;;;;;;;5094009;28;20400;-44
2022/03/15 06:19:18;;;;;;;23.95;13.75;;;;;;;;;;5094234;28;20099;-44
2022/03/15 06:21:44;;;;;;;20.63;13.10;;;;;;;;;;5094183;28;20065;-46
2022/03/15 06:24:10;;;;;;;22.85;13.00;;;;;;;;;;5093822;28;20483;-48
2022/03/15 06:26:37;;;;;;;20.92;11.95;;;;;;;;;;5093891;28;20051;-47
2022/03/15 06:29:03;;;;;;;21.52;11.77;;;;;;;;;;5093836;28;20024;-42
2022/03/15 06:31:30;;;;;;;21.83;11.40;;;;;;;;;;5093668;28;20024;-42
2022/03/15 06:33:56;;;;;;;19.25;11.15;;;;;;;;;;5093773;28;20036;-46
2022/03/15 06:36:21;;;;;;;17.95;11.25;;;;;;;;;;5093732;28;20468;-43
2022/03/15 06:38:47;;;;;;;15.70;11.10;;;;;;;;;;5093908;28;20024;-42
2022/03/15 06:41:14;;;;;;;21.58;11.32;;;;;;;;;;5092606;28;20020;-46
2022/03/15 06:43:40;;;;;;;21.80;11.25;;;;;;;;;;5093731;28;20028;-44
2022/03/15 06:46:08;;;;;;;18.88;12.00;;;;;;;;;;5093223;28;20066;-43
2022/03/15 06:48:34;;;;;;;19.17;9.80;;;;;;;;;;5093357;28;20047;-42
2022/03/15 06:50:59;;;;;;;18.17;11.02;;;;;;;;;;5092339;28;20024;-43
2022/03/15 06:53:25;;;;;;;18.23;11.18;;;;;;;;;;5092859;28;20085;-43
2022/03/15 06:55:50;;;;;;;16.40;10.02;;;;;;;;;;5093480;28;20069;-42
2022/03/15 06:58:17;;;;;;;16.77;10.43;;;;;;;;;;5092965;28;20464;-42
2022/03/15 07:00:43;;;;;;;14.60;9.00;;;;;;;;;;5093159;28;20028;-42
2022/03/15 07:03:09;;;;;;;16.55;8.95;;;;;;;;;;5093425;28;20024;-45
2022/03/15 07:05:34;;;;;;;17.15;9.52;;;;;;;;;;5093049;28;20028;-42
2022/03/15 07:08:00;;;;;;;13.30;8.63;;;;;;;;;;5093023;28;20024;-43
2022/03/15 07:10:25;;;;;;;15.48;8.70;;;;;;;;;;5093204;28;20051;-41
2022/03/15 07:12:51;;;;;;;15.60;8.35;;;;;;;;;;5093264;28;20030;-42
2022/03/15 07:15:17;;;;;;;12.15;8.02;;;;;;;;;;5092994;28;20047;-45
2022/03/15 07:17:53;;;;;;;21.67;9.07;;;;;;;;;;5092778;28;20020;-44
2022/03/15 07:20:20;;;;;;;17.05;8.25;;;;;;;;;;5093156;28;20024;-43
2022/03/15 07:22:46;;;;;;;19.58;9.52;;;;;;;;;;5092685;28;20024;-42
2022/03/15 07:25:11;;;;;;;13.52;9.00;;;;;;;;;;5092874;28;20024;-41
2022/03/15 07:27:38;;;;;;;12.43;6.13;;;;;;;;;;5092612;28;20047;-42
2022/03/15 07:30:04;;;;;;;15.20;8.40;;;;;;;;;;5092690;28;20063;-42
2022/03/15 07:32:30;;;;;;;13.00;7.90;;;;;;;;;;5092637;28;20379;-43
2022/03/15 07:34:55;;;;;;;15.65;8.15;;;;;;;;;;5092915;28;20053;-44
2022/03/15 07:37:21;;;;;;;16.67;8.52;;;;;;;;;;5092686;28;20380;-44
2022/03/15 07:39:47;;;;;;;13.57;9.02;;;;;;;;;;5092594;28;20020;-43
2022/03/15 07:42:12;;;;;;;15.20;9.10;;;;;;;;;;5092511;28;20047;-43
2022/03/15 07:44:40;;;;;;;16.48;8.05;;;;;;;;;;5092870;28;20016;-43
2022/03/15 07:47:06;;;;;;;16.20;9.32;;;;;;;;;;5092545;28;20032;-42
2022/03/15 07:49:32;;;;;;;12.18;8.35;;;;;;;;;;5092400;28;20028;-42
2022/03/15 07:51:58;;;;;;;9.63;7.57;;;;;;;;;;5092817;28;20050;-45
2022/03/15 07:54:23;;;;;;;14.55;7.85;;;;;;;;;;5092691;28;20024;-46
2022/03/15 07:56:50;;;;;;;18.92;8.10;;;;;;;;;;5092362;28;20102;-42
2022/03/15 07:59:16;;;;;;;13.50;7.97;;;;;;;;;;5091128;28;20028;-43
2022/03/15 08:01:41;;;;;;;11.43;7.30;;;;;;;;;;5092355;28;20024;-43
2022/03/15 08:04:07;;;;;;;10.25;7.50;;;;;;;;;;5092276;28;20059;-43
2022/03/15 08:06:35;;;;;;;13.13;7.53;;;;;;;;;;5092266;28;20107;-43
2022/03/15 08:09:01;;;;;;;16.08;8.38;;;;;;;;;;5092142;28;20103;-47
2022/03/15 08:11:27;;;;;;;9.02;6.30;;;;;;;;;;5092176;28;20039;-42
2022/03/15 08:13:54;;;;;;;15.57;7.80;;;;;;;;;;5092180;28;20020;-43
2022/03/15 08:16:24;;;;;;;11.77;6.93;;;;;;;;;;5090360;28;20032;-43
2022/03/15 08:18:51;;;;;;;9.95;7.53;;;;;;;;;;5091578;28;20028;-45
2022/03/15 08:21:17;;;;;;;12.50;7.97;;;;;;;;;;5092061;28;20034;-42
2022/03/15 08:23:43;;;;;;;14.07;8.30;;;;;;;;;;5092037;28;20058;-42
2022/03/15 08:26:09;;;;;;;15.55;8.10;;;;;;;;;;5091819;28;20028;-45
2022/03/15 08:28:36;;;;;;;13.15;7.45;;;;;;;;;;5093523;28;20138;-43
2022/03/15 08:31:02;;;;;;;9.63;6.80;;;;;;;;;;5095829;28;20067;-44
2022/03/15 08:33:28;;;;;;;9.63;6.95;;;;;;;;;;5094603;28;20055;-42
2022/03/15 08:35:53;;;;;;;12.85;6.93;;;;;;;;;;5093570;28;20032;-50
2022/03/15 08:38:19;;;;;;;12.75;8.25;;;;;;;;;;5094514;28;20038;-43
2022/03/15 08:40:45;;;;;;;13.13;7.60;;;;;;;;;;5095739;28;20031;-44
2022/03/15 08:43:11;;;;;;;12.75;7.50;;;;;;;;;;5095780;28;20024;-42
2022/03/15 08:45:37;;;;;;;10.65;7.45;;;;;;;;;;5095710;28;20047;-48
2022/03/15 08:48:05;;;;;;;11.13;7.25;;;;;;;;;;5095907;28;20026;-46
2022/03/15 08:50:30;;;;;;;12.32;7.35;;;;;;;;;;5094580;28;20150;-43
2022/03/15 08:52:56;;;;;;;10.10;5.90;;;;;;;;;;5095589;28;20495;-45
2022/03/15 08:55:22;;;;;;;8.35;5.90;;;;;;;;;;5095608;28;20020;-43
2022/03/15 08:57:48;;;;;;;13.30;5.95;;;;;;;;;;5095729;28;20356;-43
2022/03/15 09:00:15;;;;;;;9.95;5.43;;;;;;;;;;5095314;28;20469;-47
2022/03/15 09:02:41;;;;;;;8.00;5.80;;;;;;;;;;5095294;28;20379;-43
2022/03/15 09:05:07;;;;;;;9.15;5.88;;;;;;;;;;5095523;28;20024;-44
2022/03/15 09:07:36;;;;;;;11.10;6.03;;;;;;;;;;5095245;28;20020;-48
2022/03/15 09:10:02;;;;;;;10.02;6.45;;;;;;;;;;5095209;28;20028;-44
2022/03/15 09:12:27;;;;;;;10.15;6.25;;;;;;;;;;5093843;28;20056;-43
2022/03/15 09:14:53;;;;;;;10.10;6.28;;;;;;;;;;5095322;28;20092;-45
2022/03/15 09:17:19;;;;;;;8.88;5.30;;;;;;;;;;5095161;28;20028;-44
2022/03/15 09:19:45;;;;;;;10.20;5.75;;;;;;;;;;5094904;28;20436;-44
2022/03/15 09:22:10;;;;;;;8.70;5.82;;;;;;;;;;5094442;28;20028;-45
2022/03/15 09:24:36;;;;;;;9.48;5.45;;;;;;;;;;5094831;28;20031;-44
2022/03/15 09:27:03;;;;;;;5.45;4.20;;;;;;;;;;5094643;28;20040;-46
2022/03/15 09:29:29;;;;;;;8.40;6.20;;;;;;;;;;5094807;28;20051;-44
2022/03/15 09:31:54;;;;;;;18.27;6.22;;;;;;;;;;5094755;28;20036;-42
2022/03/15 09:34:22;;;;;;;7.30;5.43;;;;;;;;;;5094683;28;20031;-43
2022/03/15 09:36:48;;;;;;;8.27;5.63;;;;;;;;;;5093837;28;20687;-42
2022/03/15 09:39:14;;;;;;;8.20;5.65;;;;;;;;;;5093346;28;20047;-42
2022/03/15 09:41:40;;;;;;;9.95;5.40;;;;;;;;;;5094144;28;20023;-42
2022/03/15 09:44:10;;;;;;;10.77;5.90;;;;;;;;;;5094681;28;20024;-42
2022/03/15 09:46:47;;;;;;;10.10;6.18;;;;;;;;;;5094556;28;20515;-41
2022/03/15 09:49:15;;;;;;;8.93;5.50;;;;;;;;;;5094691;28;20064;-42
2022/03/15 09:51:41;;;;;;;7.90;5.82;;;;;;;;;;5093503;28;20091;-42
2022/03/15 09:54:07;;;;;;;12.50;6.40;;;;;;;;;;5094507;28;20063;-42
2022/03/15 09:56:38;;;;;;;9.10;6.13;;;;;;;;;;5093094;28;20538;-42
2022/03/15 09:59:25;;;;;;;7.53;5.60;;;;;;;;;;5093565;28;20031;-42
2022/03/15 10:01:53;;;;;;;7.70;4.68;;;;;;;;;;5094087;28;20107;-46
2022/03/15 10:04:23;;;;;;;11.45;5.43;;;;;;;;;;5094095;28;20059;-45
2022/03/15 10:06:49;;;;;;;13.85;6.60;;;;;;;;;;5094255;28;20024;-45
2022/03/15 10:09:15;;;;;;;8.27;5.35;;;;;;;;;;5093782;28;20062;-46
2022/03/15 10:11:41;;;;;;;8.85;6.32;;;;;;;;;;5094152;28;20028;-46
2022/03/15 10:14:08;;;;;;;10.93;6.22;;;;;;;;;;5094081;28;20400;-46
2022/03/15 10:16:36;;;;;;;9.77;6.95;;;;;;;;;;5094283;28;20184;-49
2022/03/15 10:19:03;;;;;;;7.32;5.97;;;;;;;;;;5094256;28;20068;-43
2022/03/15 10:21:45;;;;;;;9.68;5.90;;;;;;;;;;5093964;28;20487;-45
2022/03/15 10:24:14;;;;;;;8.35;5.43;;;;;;;;;;5093989;28;20028;-44
2022/03/15 10:26:40;;;;;;;7.88;6.18;;;;;;;;;;5093597;28;20496;-44
2022/03/15 10:29:07;;;;;;;8.85;6.30;;;;;;;;;;5094255;28;20039;-44
2022/03/15 10:31:33;;;;;;;11.45;7.07;;;;;;;;;;5093977;28;20095;-48
2022/03/15 10:34:01;;;;;;;9.43;5.80;;;;;;;;;;5093986;28;20481;-48
2022/03/15 10:36:36;;;;;;;9.05;7.10;;;;;;;;;;5093725;28;20024;-44
2022/03/15 10:39:03;;;;;;;10.13;6.85;;;;;;;;;;5093951;28;20028;-43
2022/03/15 10:41:28;;;;;;;10.98;6.65;;;;;;;;;;5093800;28;20089;-50
2022/03/15 10:43:55;;;;;;;7.72;6.22;;;;;;;;;;5093817;28;20055;-44
2022/03/15 10:46:23;;;;;;;9.77;6.82;;;;;;;;;;5093404;28;20107;-47
2022/03/15 10:48:59;;;;;;;9.10;6.93;;;;;;;;;;5093366;28;20101;-45
2022/03/15 10:51:25;;;;;;;15.52;6.53;;;;;;;;;;5093283;28;20028;-44
2022/03/15 10:53:50;;;;;;;9.73;5.90;;;;;;;;;;5093594;28;20376;-46
2022/03/15 10:56:20;;;;;;;9.57;7.15;;;;;;;;;;5093581;28;20020;-50
2022/03/15 10:59:01;;;;;;;9.45;6.88;;;;;;;;;;5093255;28;20032;-46
2022/03/15 11:01:29;;;;;;;9.82;7.00;;;;;;;;;;5093183;28;20024;-43
2022/03/15 11:04:03;;;;;;;11.93;7.22;;;;;;;;;;5093181;28;20023;-45
2022/03/15 11:06:34;;;;;;;10.25;7.60;;;;;;;;;;5093114;28;20035;-47
2022/03/15 11:09:00;;;;;;;8.43;6.45;;;;;;;;;;5093051;28;20379;-48
2022/03/15 11:11:26;;;;;;;9.88;7.45;;;;;;;;;;5092985;28;20056;-44
2022/03/15 11:14:04;;;;;;;10.95;6.93;;;;;;;;;;5091704;28;20016;-47
2022/03/15 11:16:31;;;;;;;11.88;6.80;;;;;;;;;;5093055;28;20361;-50
2022/03/15 11:19:00;;;;;;;12.32;7.00;;;;;;;;;;5093096;28;20032;-46
2022/03/15 11:21:25;;;;;;;10.93;8.45;;;;;;;;;;5092829;28;20502;-49
2022/03/15 11:23:52;;;;;;;10.80;8.25;;;;;;;;;;5092783;28;20028;-48
2022/03/15 11:26:22;;;;;;;11.02;7.80;;;;;;;;;;5092832;28;20032;-51
2022/03/15 11:28:48;;;;;;;12.38;7.63;;;;;;;;;;5092838;28;20028;-51
2022/03/15 11:31:15;;;;;;;11.65;8.00;;;;;;;;;;5092982;28;20020;-51
2022/03/15 11:33:44;;;;;;;11.70;7.57;;;;;;;;;;5092670;28;20025;-49
2022/03/15 11:36:10;;;;;;;11.88;7.95;;;;;;;;;;5092957;28;20470;-46
2022/03/15 11:38:37;;;;;;;15.07;7.32;;;;;;;;;;5092921;28;20051;-50
2022/03/15 11:41:03;;;;;;;12.25;7.80;;;;;;;;;;5092650;28;20032;-43
2022/03/15 11:43:50;;;;;;;9.85;7.15;;;;;;;;;;5092882;28;20024;-45
2022/03/15 11:46:50;;;;;;;8.90;6.68;;;;;;;;;;5092646;28;20567;-46
2022/03/15 11:49:46;;;;;;;12.05;7.80;;;;;;;;;;5092297;28;20652;-46
2022/03/15 11:52:50;;;;;;;10.95;8.52;;;;;;;;;;5092380;28;20146;-49
2022/03/15 11:55:29;;;;;;;11.68;7.30;;;;;;;;;;5075997;28;20131;-50
2022/03/15 11:58:07;;;;;;;12.32;8.23;;;;;;;;;;5092654;28;20060;-51
2022/03/15 12:00:44;;;;;;;10.25;7.65;;;;;;;;;;5092544;28;20089;-46
2022/03/15 12:03:15;;;;;;;15.02;6.53;;;;;;;;;;5093134;28;20031;-46
2022/03/15 12:05:51;;;;;;;9.75;7.30;;;;;;;;;;5096863;28;20032;-47
2022/03/15 12:08:20;;;;;;;10.55;8.00;;;;;;;;;;5096529;28;20024;-45
2022/03/15 12:10:53;;;;;;;8.75;6.93;;;;;;;;;;5096621;28;20043;-46
2022/03/15 12:13:20;;;;;;;12.25;8.10;;;;;;;;;;5096721;28;20028;-46
2022/03/15 12:15:50;;;;;;;10.43;7.68;;;;;;;;;;5096379;28;20029;-45
2022/03/15 12:21:02;;;;;;;9.43;7.20;;;;;;;;;;5096586;28;19912;-46
2022/03/15 12:23:43;;;;;;;13.00;8.07;;;;;;;;;;5096284;28;20383;-49
2022/03/15 12:26:28;;;;;;;11.13;7.03;;;;;;;;;;5096062;28;20495;-46
2022/03/15 12:29:04;;;;;;;11.43;7.88;;;;;;;;;;5096072;28;20071;-47
2022/03/15 12:31:44;;;;;;;9.60;5.78;;;;;;;;;;5096391;28;20429;-44
2022/03/15 12:34:11;;;;;;;10.88;7.32;;;;;;;;;;5096295;28;20069;-46
2022/03/15 12:36:59;;;;;;;11.18;7.80;;;;;;;;;;5096268;28;20028;-49
2022/03/15 12:39:29;;;;;;;13.02;7.93;;;;;;;;;;5096293;28;20115;-47
2022/03/15 12:42:15;;;;;;;13.90;7.75;;;;;;;;;;5095859;28;20472;-45
2022/03/15 12:44:41;;;;;;;12.85;7.68;;;;;;;;;;5095830;28;20067;-44
2022/03/15 12:47:07;;;;;;;11.27;8.05;;;;;;;;;;5095857;28;20056;-45
2022/03/15 12:49:33;;;;;;;10.43;7.38;;;;;;;;;;5095667;28;20035;-44
2022/03/15 12:52:09;;;;;;;8.45;6.03;;;;;;;;;;5094851;28;20081;-46
2022/03/15 12:54:35;;;;;;;12.15;6.95;;;;;;;;;;5095939;28;20052;-43
2022/03/15 12:57:10;;;;;;;10.95;6.65;;;;;;;;;;5095917;28;20105;-45
2022/03/15 12:59:36;;;;;;;12.57;7.22;;;;;;;;;;5095781;28;20073;-49
2022/03/15 13:02:03;;;;;;;11.45;6.97;;;;;;;;;;5095481;28;20027;-46
2022/03/15 13:04:30;;;;;;;11.52;7.03;;;;;;;;;;5095455;28;20024;-45
2022/03/15 13:06:56;;;;;;;10.25;7.45;;;;;;;;;;5095649;28;20028;-44
2022/03/15 13:09:27;;;;;;;9.82;7.35;;;;;;;;;;5095524;28;20032;-45
2022/03/15 13:11:55;;;;;;;;;;;;;;;;;;5096023;28;20051;-47
2022/03/15 13:14:26;;;;;;;9.68;7.38;;;;;;;;;;5095253;28;19919;-45
2022/03/15 13:16:52;;;;;;;9.63;6.40;;;;;;;;;;5095256;28;20063;-43
2022/03/15 13:19:29;;;;;;;9.20;6.63;;;;;;;;;;5095226;28;20056;-43
2022/03/15 13:21:55;;;;;;;10.38;6.50;;;;;;;;;;5095444;28;20079;-43
2022/03/15 13:24:23;;;;;;;9.23;6.68;;;;;;;;;;5095079;28;20055;-44
2022/03/15 13:26:55;;;;;;;10.52;5.47;;;;;;;;;;5094994;28;20092;-43
2022/03/15 13:29:23;;;;;;;8.23;5.60;;;;;;;;;;5094947;28;20166;-43
2022/03/15 13:31:49;;;;;;;10.73;6.90;;;;;;;;;;5094948;28;20024;-43
2022/03/15 13:34:31;;;;;;;13.25;7.47;;;;;;;;;;5095211;28;20024;-42
2022/03/15 13:37:07;;;;;;;9.63;6.95;;;;;;;;;;5094931;28;20077;-43
2022/03/15 13:39:36;;;;;;;10.52;7.00;;;;;;;;;;5094800;28;20024;-43
2022/03/15 13:42:07;;;;;;;9.67;6.87;;;;;;;;;;5095085;28;20081;-43
2022/03/15 13:44:36;;;;;;;12.88;6.80;;;;;;;;;;5094713;28;20468;-43
2022/03/15 13:47:13;;;;;;;10.90;7.13;;;;;;;;;;5094612;28;20472;-43
2022/03/15 13:49:41;;;;;;;8.98;5.85;;;;;;;;;;5094816;28;20102;-45
2022/03/15 13:52:16;;;;;;;11.27;7.57;;;;;;;;;;5094505;28;20074;-45
2022/03/15 13:55:02;;;;;;;7.93;5.85;;;;;;;;;;5094843;28;20028;-45
2022/03/15 13:57:31;;;;;;;10.15;7.22;;;;;;;;;;5094446;28;20024;-43
2022/03/15 14:00:03;;;;;;;11.50;5.40;;;;;;;;;;5094377;28;20028;-44
2022/03/15 14:02:35;;;;;;;12.25;7.10;;;;;;;;;;5094619;28;20103;-45
2022/03/15 14:05:07;;;;;;;8.80;6.43;;;;;;;;;;5094321;28;20180;-45
2022/03/15 14:07:36;;;;;;;10.05;6.05;;;;;;;;;;5094513;28;20376;-42
2022/03/15 14:10:09;;;;;;;11.00;7.65;;;;;;;;;;5094176;28;20031;-43
2022/03/15 14:12:36;;;;;;;8.10;5.85;;;;;;;;;;5094425;28;20023;-44
2022/03/15 14:15:06;;;;;;;14.82;7.30;;;;;;;;;;5094398;28;20020;-44
2022/03/15 14:17:48;;;;;;;11.18;7.30;;;;;;;;;;5094608;28;20031;-42
2022/03/15 14:20:19;;;;;;;10.13;6.95;;;;;;;;;;5094314;28;20134;-45
2022/03/15 14:22:48;;;;;;;15.50;8.00;;;;;;;;;;5093885;28;20472;-43
2022/03/15 14:25:20;;;;;;;11.32;6.85;;;;;;;;;;5093815;28;20027;-44
2022/03/15 14:27:49;;;;;;;10.57;7.20;;;;;;;;;;5093375;28;20083;-42
2022/03/15 14:30:20;;;;;;;11.77;7.20;;;;;;;;;;5093958;28;20028;-44
2022/03/15 14:33:08;;;;;;;;;;;;;;;;;;5094494;28;20372;-43
2022/03/15 14:35:37;;;;;;;9.43;6.25;;;;;;;;;;5087832;28;19912;-43